createdAt,value
2017-08-24T00:00:49.854Z,15.70
2017-08-24T00:03:16.075Z,15.50
2017-08-24T00:05:42.300Z,15.07
2017-08-24T00:08:08.788Z,15.80
2017-08-24T00:10:34.889Z,15.47
2017-08-24T00:13:01.018Z,16.73
2017-08-24T00:15:27.346Z,16.30
2017-08-24T00:17:53.467Z,12.83
2017-08-24T00:20:19.882Z,14.33
2017-08-24T00:22:46.118Z,15.60
2017-08-24T00:25:12.327Z,16.27
2017-08-24T00:27:38.510Z,16.33
2017-08-24T00:30:04.709Z,16.27
2017-08-24T00:32:31.230Z,16.70
2017-08-24T00:34:57.367Z,15.50
2017-08-24T00:37:23.564Z,16.87
2017-08-24T00:39:49.849Z,14.50
2017-08-24T00:42:16.058Z,16.10
2017-08-24T00:44:42.539Z,15.80
2017-08-24T00:47:08.827Z,15.80
2017-08-24T00:49:35.074Z,15.77
2017-08-24T00:52:01.293Z,15.20
2017-08-24T00:54:27.445Z,15.07
2017-08-24T00:56:53.988Z,14.87
2017-08-24T00:59:20.205Z,16.57
2017-08-24T01:01:46.449Z,15.57
2017-08-24T01:04:12.663Z,15.20
2017-08-24T01:06:38.906Z,16.00
2017-08-24T01:09:05.452Z,16.20
2017-08-24T01:11:31.570Z,15.80
2017-08-24T01:13:57.798Z,16.77
2017-08-24T01:16:24.437Z,16.77
2017-08-24T01:18:50.617Z,16.43
2017-08-24T01:21:16.755Z,16.40
2017-08-24T01:23:43.225Z,16.77
2017-08-24T01:26:09.491Z,16.10
2017-08-24T01:28:35.696Z,15.80
2017-08-24T01:31:02.128Z,16.73
2017-08-24T01:33:28.299Z,15.60
2017-08-24T01:35:54.411Z,15.57
2017-08-24T01:38:20.885Z,15.40
2017-08-24T01:40:47.071Z,15.03
2017-08-24T01:43:13.208Z,15.57
2017-08-24T01:45:39.677Z,16.07
2017-08-24T01:48:05.874Z,16.23
2017-08-24T01:50:31.978Z,15.87
2017-08-24T01:52:58.470Z,16.10
2017-08-24T01:55:24.648Z,15.73
2017-08-24T01:57:50.765Z,14.87
2017-08-24T02:00:17.247Z,15.00
2017-08-24T02:02:43.527Z,13.83
2017-08-24T02:05:09.660Z,14.27
2017-08-24T02:07:35.981Z,13.93
2017-08-24T02:10:02.161Z,12.93
2017-08-24T02:12:28.348Z,13.60
2017-08-24T02:14:54.845Z,13.63
2017-08-24T02:17:21.035Z,14.23
2017-08-24T02:19:47.145Z,13.30
2017-08-24T02:22:13.301Z,12.83
2017-08-24T02:24:39.500Z,14.00
2017-08-24T02:27:05.634Z,12.53
2017-08-24T02:29:32.097Z,13.07
2017-08-24T02:31:58.244Z,13.20
2017-08-24T02:34:24.415Z,13.57
2017-08-24T02:36:50.817Z,14.13
2017-08-24T02:39:16.985Z,12.90
2017-08-24T02:41:43.096Z,13.77
2017-08-24T02:44:09.569Z,14.50
2017-08-24T02:46:35.752Z,13.47
2017-08-24T02:49:01.857Z,14.03
2017-08-24T02:51:28.053Z,13.77
2017-08-24T02:53:54.249Z,15.03
2017-08-24T02:56:20.708Z,14.13
2017-08-24T02:58:46.939Z,14.80
2017-08-24T03:01:13.128Z,14.43
2017-08-24T03:03:39.277Z,14.23
2017-08-24T03:06:05.392Z,14.90
2017-08-24T03:08:31.843Z,14.40
2017-08-24T03:10:58.049Z,14.83
2017-08-24T03:13:24.177Z,13.63
2017-08-24T03:15:50.349Z,13.70
2017-08-24T03:18:16.511Z,14.90
2017-08-24T03:20:43.000Z,14.57
2017-08-24T03:23:09.199Z,15.33
2017-08-24T03:25:35.310Z,14.53
2017-08-24T03:28:01.453Z,14.90
2017-08-24T03:30:27.549Z,13.90
2017-08-24T03:32:54.028Z,14.20
2017-08-24T03:35:20.236Z,14.23
2017-08-24T03:37:46.341Z,13.03
2017-08-24T03:40:12.485Z,13.13
2017-08-24T03:42:38.612Z,14.10
2017-08-24T03:45:05.163Z,12.83
2017-08-24T03:47:31.249Z,12.33
2017-08-24T03:49:57.375Z,13.27
2017-08-24T03:52:23.531Z,13.73
2017-08-24T03:54:49.660Z,13.33
2017-08-24T03:57:16.330Z,13.03
2017-08-24T03:59:42.491Z,13.63
2017-08-24T04:02:08.615Z,12.07
2017-08-24T04:04:35.112Z,12.57
2017-08-24T04:07:01.276Z,12.50
2017-08-24T04:09:27.425Z,12.70
2017-08-24T04:11:53.555Z,12.40
2017-08-24T04:14:19.668Z,14.50
2017-08-24T04:16:46.145Z,12.00
2017-08-24T04:19:12.229Z,11.90
2017-08-24T04:21:38.343Z,12.30
2017-08-24T04:24:04.537Z,12.07
2017-08-24T04:26:30.713Z,12.00
2017-08-24T04:28:57.182Z,11.80
2017-08-24T04:31:23.373Z,11.90
2017-08-24T04:33:49.493Z,11.50
2017-08-24T04:39:11.094Z,10.70
2017-08-24T04:41:37.302Z,11.67
2017-08-24T04:44:03.827Z,12.23
2017-08-24T04:46:30.409Z,12.43
2017-08-24T04:48:56.596Z,12.17
2017-08-24T04:51:22.819Z,11.80
2017-08-24T04:53:49.246Z,12.40
2017-08-24T04:56:15.384Z,12.13
2017-08-24T04:58:41.535Z,12.60
2017-08-24T05:01:07.773Z,12.10
2017-08-24T05:03:34.081Z,12.07
2017-08-24T05:06:00.294Z,12.20
2017-08-24T05:08:26.748Z,12.93
2017-08-24T05:10:52.963Z,12.20
2017-08-24T05:13:19.067Z,11.63
2017-08-24T05:15:45.537Z,12.57
2017-08-24T05:18:11.781Z,12.20
2017-08-24T05:20:37.970Z,12.03
2017-08-24T05:23:04.547Z,12.00
2017-08-24T05:25:30.848Z,13.23
2017-08-24T05:27:57.089Z,12.70
2017-08-24T05:30:23.628Z,11.50
2017-08-24T05:32:49.843Z,12.13
2017-08-24T05:35:16.071Z,11.67
2017-08-24T05:37:42.643Z,10.90
2017-08-24T05:40:08.822Z,11.97
2017-08-24T05:42:34.946Z,11.43
2017-08-24T05:45:01.203Z,11.40
2017-08-24T05:47:27.481Z,11.07
2017-08-24T05:49:53.625Z,12.30
2017-08-24T05:52:19.783Z,11.33
2017-08-24T05:54:46.178Z,10.43
2017-08-24T05:57:12.362Z,11.43
2017-08-24T05:59:38.567Z,10.90
2017-08-24T06:02:04.887Z,11.43
2017-08-24T06:04:31.244Z,10.83
2017-08-24T06:06:57.477Z,11.23
2017-08-24T06:09:23.671Z,9.63
2017-08-24T06:11:49.914Z,11.60
2017-08-24T06:14:16.163Z,11.70
2017-08-24T06:16:42.550Z,11.97
2017-08-24T06:19:08.761Z,8.50
2017-08-24T06:21:34.979Z,8.40
2017-08-24T06:24:01.165Z,8.47
2017-08-24T06:26:27.330Z,8.50
2017-08-24T06:28:53.488Z,7.40
2017-08-24T06:31:19.788Z,8.23
2017-08-24T06:33:45.948Z,8.17
2017-08-24T06:36:12.091Z,7.73
2017-08-24T06:38:38.334Z,7.77
2017-08-24T06:41:04.519Z,8.43
2017-08-24T06:43:30.681Z,7.70
2017-08-24T06:45:56.864Z,7.37
2017-08-24T06:48:23.069Z,7.00
2017-08-24T06:50:49.253Z,8.00
2017-08-24T06:53:15.475Z,7.37
2017-08-24T06:55:41.740Z,8.07
2017-08-24T06:58:08.329Z,7.97
2017-08-24T07:00:34.468Z,7.70
2017-08-24T07:03:00.761Z,7.50
2017-08-24T07:05:26.903Z,7.60
2017-08-24T07:07:53.073Z,8.27
2017-08-24T07:10:19.345Z,7.23
2017-08-24T07:12:45.504Z,8.23
2017-08-24T07:15:11.808Z,8.57
2017-08-24T07:17:38.957Z,6.77
2017-08-24T07:20:05.075Z,6.37
2017-08-24T07:22:31.289Z,14.00
2017-08-24T07:24:57.470Z,5.80
2017-08-24T07:27:23.895Z,9.27
2017-08-24T07:29:50.077Z,7.20
2017-08-24T07:32:16.370Z,6.40
2017-08-24T07:34:42.624Z,5.70
2017-08-24T07:37:08.930Z,7.70
2017-08-24T07:39:35.252Z,6.23
2017-08-24T07:42:01.545Z,6.70
2017-08-24T07:44:27.813Z,6.10
2017-08-24T07:46:54.060Z,9.10
2017-08-24T07:49:20.282Z,9.03
2017-08-24T07:51:47.702Z,5.80
2017-08-24T07:54:14.253Z,5.83
2017-08-24T07:56:40.461Z,5.80
2017-08-24T07:59:06.704Z,4.70
2017-08-24T08:01:32.917Z,5.10
2017-08-24T08:03:59.098Z,4.40
2017-08-24T08:06:25.316Z,5.27
2017-08-24T08:08:51.539Z,4.53
2017-08-24T08:11:17.832Z,5.77
2017-08-24T08:13:44.004Z,4.37
2017-08-24T08:16:10.221Z,4.40
2017-08-24T08:18:36.458Z,4.00
2017-08-24T08:21:02.733Z,4.63
2017-08-24T08:23:28.919Z,4.87
2017-08-24T08:25:55.147Z,4.80
2017-08-24T08:28:22.029Z,4.43
2017-08-24T08:30:48.987Z,4.50
2017-08-24T08:33:15.237Z,4.10
2017-08-24T08:35:41.535Z,4.20
2017-08-24T08:38:08.285Z,7.23
2017-08-24T08:40:34.471Z,4.30
2017-08-24T08:43:00.696Z,5.10
2017-08-24T08:45:27.252Z,4.70
2017-08-24T08:47:53.469Z,5.23
2017-08-24T08:50:19.649Z,6.00
2017-08-24T08:52:46.202Z,4.70
2017-08-24T08:55:12.431Z,4.70
2017-08-24T08:57:38.659Z,4.50
2017-08-24T09:00:05.192Z,4.80
2017-08-24T09:02:32.409Z,4.80
2017-08-24T09:04:58.583Z,4.87
2017-08-24T09:07:25.142Z,4.43
2017-08-24T09:09:51.320Z,7.90
2017-08-24T09:12:17.496Z,6.00
2017-08-24T09:14:44.014Z,4.60
2017-08-24T09:17:10.226Z,4.07
2017-08-24T09:19:36.433Z,5.47
2017-08-24T09:22:04.116Z,4.30
2017-08-24T09:24:30.428Z,7.27
2017-08-24T09:26:56.692Z,4.70
2017-08-24T09:29:23.086Z,3.80
2017-08-24T09:31:50.044Z,4.37
2017-08-24T09:34:16.703Z,4.13
2017-08-24T09:36:43.039Z,4.30
2017-08-24T09:39:10.477Z,4.70
2017-08-24T09:41:37.045Z,4.70
2017-08-24T09:44:03.501Z,7.07
2017-08-24T09:46:29.808Z,5.07
2017-08-24T09:48:56.151Z,5.00
2017-08-24T09:51:22.806Z,4.47
2017-08-24T09:53:49.055Z,5.47
2017-08-24T09:56:15.229Z,5.63
2017-08-24T09:58:41.853Z,4.60
2017-08-24T10:01:08.088Z,5.07
2017-08-24T10:03:34.320Z,6.00
2017-08-24T10:06:00.882Z,5.13
2017-08-24T10:08:27.129Z,5.70
2017-08-24T10:10:53.297Z,5.07
2017-08-24T10:13:19.923Z,5.90
2017-08-24T10:15:46.823Z,5.73
2017-08-24T10:18:13.068Z,6.13
2017-08-24T10:20:39.646Z,6.00
2017-08-24T10:23:05.948Z,6.37
2017-08-24T10:25:32.080Z,5.20
2017-08-24T10:27:58.755Z,5.93
2017-08-24T10:32:56.816Z,6.47
2017-08-24T10:35:23.384Z,5.60
2017-08-24T10:37:49.588Z,5.30
2017-08-24T10:40:15.872Z,7.93
2017-08-24T10:42:42.378Z,5.93
2017-08-24T10:45:08.574Z,5.50
2017-08-24T10:47:34.816Z,6.80
2017-08-24T10:50:01.258Z,6.60
2017-08-24T10:52:27.468Z,5.50
2017-08-24T10:54:53.625Z,6.20
2017-08-24T10:57:20.258Z,6.17
2017-08-24T10:59:46.467Z,5.47
2017-08-24T11:02:12.693Z,7.10
2017-08-24T11:04:39.355Z,5.37
2017-08-24T11:07:05.549Z,6.70
2017-08-24T11:09:31.848Z,5.80
2017-08-24T11:11:58.305Z,4.50
2017-08-24T11:14:24.523Z,4.43
2017-08-24T11:16:50.695Z,5.70
2017-08-24T11:19:17.220Z,5.27
2017-08-24T11:21:43.553Z,5.47
2017-08-24T11:24:09.813Z,5.07
2017-08-24T11:26:36.423Z,7.20
2017-08-24T11:29:02.682Z,5.63
2017-08-24T11:31:28.889Z,4.40
2017-08-24T11:33:55.515Z,4.40
2017-08-24T11:36:21.792Z,4.90
2017-08-24T11:38:47.946Z,4.73
2017-08-24T11:41:15.248Z,5.83
2017-08-24T11:43:42.279Z,4.67
2017-08-24T11:46:08.484Z,4.53
2017-08-24T11:48:35.628Z,4.83
2017-08-24T11:51:01.903Z,5.33
2017-08-24T11:53:28.090Z,4.00
2017-08-24T11:55:54.655Z,4.67
2017-08-24T11:58:21.962Z,5.30
2017-08-24T12:00:48.241Z,4.53
2017-08-24T12:03:14.811Z,5.10
2017-08-24T12:05:40.953Z,4.97
2017-08-24T12:08:07.113Z,6.23
2017-08-24T12:10:33.347Z,5.43
2017-08-24T12:12:59.550Z,6.73
2017-08-24T12:15:25.858Z,6.57
2017-08-24T12:17:52.038Z,6.13
2017-08-24T12:20:18.981Z,7.03
2017-08-24T12:22:45.217Z,5.63
2017-08-24T12:25:11.500Z,7.70
2017-08-24T12:27:37.891Z,6.30
2017-08-24T12:30:05.115Z,6.17
2017-08-24T12:32:31.288Z,8.30
2017-08-24T12:34:57.500Z,6.60
2017-08-24T12:37:23.681Z,9.37
2017-08-24T12:39:50.710Z,6.80
2017-08-24T12:42:16.895Z,6.77
2017-08-24T12:44:43.068Z,7.63
2017-08-24T12:47:09.464Z,7.30
2017-08-24T12:49:35.660Z,7.50
2017-08-24T12:52:01.949Z,8.37
2017-08-24T12:54:28.204Z,7.30
2017-08-24T12:56:54.469Z,7.40
2017-08-24T12:59:20.677Z,8.20
2017-08-24T13:01:46.956Z,7.67
2017-08-24T13:04:13.224Z,8.20
2017-08-24T13:06:39.452Z,10.27
2017-08-24T13:09:05.995Z,8.47
2017-08-24T13:11:32.364Z,7.90
2017-08-24T13:13:58.591Z,8.10
2017-08-24T13:16:24.931Z,8.03
2017-08-24T13:18:51.093Z,8.77
2017-08-24T13:21:17.410Z,8.43
2017-08-24T13:23:43.695Z,10.63
2017-08-24T13:26:09.896Z,10.90
2017-08-24T13:28:36.224Z,11.50
2017-08-24T13:31:02.598Z,11.13
2017-08-24T13:33:28.928Z,11.23
2017-08-24T13:35:55.152Z,12.50
2017-08-24T13:38:22.252Z,11.73
2017-08-24T13:40:48.517Z,12.93
2017-08-24T13:43:14.713Z,12.80
2017-08-24T13:45:40.984Z,12.60
2017-08-24T13:48:07.329Z,12.50
2017-08-24T13:50:33.512Z,12.47
2017-08-24T13:52:59.744Z,14.70
2017-08-24T13:55:25.878Z,14.03
2017-08-24T13:57:52.087Z,14.43
2017-08-24T14:00:18.346Z,15.50
2017-08-24T14:02:44.537Z,15.40
2017-08-24T14:05:10.782Z,14.73
2017-08-24T14:07:37.118Z,14.97
2017-08-24T14:10:04.700Z,14.70
2017-08-24T14:12:30.888Z,15.20
2017-08-24T14:14:57.223Z,15.83
2017-08-24T14:17:24.878Z,15.50
2017-08-24T14:19:51.149Z,15.50
2017-08-24T14:22:17.444Z,18.80
2017-08-24T14:24:43.744Z,22.40
2017-08-24T14:27:09.897Z,17.40
2017-08-24T14:29:36.150Z,20.50
2017-08-24T14:32:02.328Z,17.70
2017-08-24T14:34:28.467Z,19.43
2017-08-24T14:36:54.742Z,17.90
2017-08-24T14:39:21.191Z,19.77
2017-08-24T14:41:47.421Z,18.30
2017-08-24T14:44:13.751Z,20.47
2017-08-24T14:46:39.931Z,19.50
2017-08-24T14:49:06.150Z,21.23
2017-08-24T14:51:32.337Z,18.63
2017-08-24T14:53:58.708Z,21.57
2017-08-24T14:56:24.955Z,20.30
2017-08-24T14:58:51.273Z,20.20
2017-08-24T15:01:17.525Z,22.53
2017-08-24T15:03:43.825Z,22.27
2017-08-24T15:06:10.102Z,22.10
2017-08-24T15:08:36.265Z,22.37
2017-08-24T15:11:02.624Z,23.80
2017-08-24T15:13:28.897Z,21.30
2017-08-24T15:15:55.239Z,21.20
2017-08-24T15:18:21.438Z,22.17
2017-08-24T15:20:47.677Z,22.30
2017-08-24T15:23:14.630Z,20.83
2017-08-24T15:25:40.848Z,21.70
2017-08-24T15:28:07.040Z,20.17
2017-08-24T15:30:33.299Z,21.80
2017-08-24T15:32:59.588Z,20.53
2017-08-24T15:35:25.945Z,22.50
2017-08-24T15:37:52.247Z,22.03
2017-08-24T15:40:18.416Z,22.93
2017-08-24T15:42:44.689Z,22.07
2017-08-24T15:45:10.816Z,21.27
2017-08-24T15:47:36.989Z,23.50
2017-08-24T15:50:03.286Z,22.90
2017-08-24T15:52:29.604Z,22.50
2017-08-24T15:54:55.764Z,22.70
2017-08-24T15:57:22.412Z,22.03
2017-08-24T15:59:48.627Z,24.23
2017-08-24T16:02:15.155Z,23.90
2017-08-24T16:04:41.442Z,24.30
2017-08-24T16:07:08.810Z,26.70
2017-08-24T16:09:35.047Z,24.87
2017-08-24T16:12:01.308Z,24.57
2017-08-24T16:14:28.330Z,25.07
2017-08-24T16:16:54.561Z,24.00
2017-08-24T16:19:20.758Z,25.63
2017-08-24T16:21:47.243Z,25.80
2017-08-24T16:24:13.388Z,26.13
2017-08-24T16:26:40.020Z,25.57
2017-08-24T16:29:06.296Z,25.37
2017-08-24T16:31:32.431Z,25.67
2017-08-24T16:33:58.606Z,27.60
2017-08-24T16:36:24.811Z,26.83
2017-08-24T16:38:51.134Z,30.27
2017-08-24T16:41:17.435Z,29.33
2017-08-24T16:43:43.676Z,29.30
2017-08-24T16:46:09.839Z,27.13
2017-08-24T16:48:36.326Z,27.60
2017-08-24T16:51:02.564Z,31.77
2017-08-24T16:53:28.894Z,28.93
2017-08-24T16:55:55.088Z,30.50
2017-08-24T16:58:21.348Z,31.20
2017-08-24T17:00:47.508Z,31.70
2017-08-24T17:03:13.864Z,33.77
2017-08-24T17:05:40.085Z,36.33
2017-08-24T17:08:06.294Z,36.23
2017-08-24T17:10:32.649Z,30.97
2017-08-24T17:12:58.929Z,31.17
2017-08-24T17:15:25.123Z,30.20
2017-08-24T17:17:51.299Z,31.73
2017-08-24T17:20:17.631Z,31.57
2017-08-24T17:22:43.857Z,33.73
2017-08-24T17:25:10.124Z,33.13
2017-08-24T17:27:36.395Z,34.40
2017-08-24T17:30:02.701Z,33.57
2017-08-24T17:32:29.786Z,33.83
2017-08-24T17:34:56.281Z,33.13
2017-08-24T17:37:22.699Z,33.07
2017-08-24T17:39:49.139Z,33.53
2017-08-24T17:42:15.351Z,33.67
2017-08-24T17:44:41.680Z,33.47
2017-08-24T17:47:09.626Z,33.93
2017-08-24T17:49:36.001Z,34.50
2017-08-24T17:52:02.279Z,34.43
2017-08-24T17:54:28.423Z,35.90
2017-08-24T17:56:54.674Z,35.07
2017-08-24T17:59:21.897Z,36.20
2017-08-24T18:01:48.168Z,36.13
2017-08-24T18:04:14.337Z,37.50
2017-08-24T18:06:40.814Z,36.33
2017-08-24T18:09:07.264Z,36.43
2017-08-24T18:11:33.510Z,40.40
2017-08-24T18:13:59.749Z,39.20
2017-08-24T18:16:26.295Z,39.37
2017-08-24T18:18:52.589Z,38.80
2017-08-24T18:21:18.774Z,44.77
2017-08-24T18:23:45.056Z,39.37
2017-08-24T18:26:11.304Z,40.53
2017-08-24T18:28:37.680Z,39.63
2017-08-24T18:31:03.862Z,43.53
2017-08-24T18:33:30.152Z,46.30
2017-08-24T18:35:56.412Z,44.90
2017-08-24T18:38:22.746Z,46.10
2017-08-24T18:40:49.065Z,42.30
2017-08-24T18:43:15.447Z,41.00
2017-08-24T18:45:41.764Z,43.17
2017-08-24T18:48:07.997Z,42.90
2017-08-24T18:50:34.218Z,44.90
2017-08-24T18:53:00.485Z,43.53
2017-08-24T18:55:26.715Z,42.67
2017-08-24T18:57:53.079Z,43.03
2017-08-24T19:00:19.394Z,46.33
2017-08-24T19:02:46.531Z,44.60
2017-08-24T19:05:12.719Z,43.43
2017-08-24T19:07:39.909Z,44.80
2017-08-24T19:10:06.226Z,46.63
2017-08-24T19:12:32.483Z,46.47
2017-08-24T19:14:59.134Z,49.83
2017-08-24T19:17:25.547Z,52.03
2017-08-24T19:19:51.780Z,51.33
2017-08-24T19:22:17.935Z,59.10
2017-08-24T19:24:44.844Z,54.43
2017-08-24T19:27:11.033Z,50.50
2017-08-24T19:29:37.478Z,48.33
2017-08-24T19:32:04.108Z,51.33
2017-08-24T19:34:30.851Z,51.10
2017-08-24T19:36:57.553Z,47.93
2017-08-24T19:39:23.798Z,47.10
2017-08-24T19:41:50.036Z,46.83
2017-08-24T19:44:16.320Z,50.53
2017-08-24T19:46:42.593Z,47.60
2017-08-24T19:49:08.983Z,44.20
2017-08-24T19:51:35.199Z,46.33
2017-08-24T19:54:01.415Z,43.27
2017-08-24T19:56:27.741Z,48.20
2017-08-24T19:58:53.947Z,44.87
2017-08-24T20:01:20.291Z,45.40
2017-08-24T20:03:46.706Z,45.60
2017-08-24T20:06:13.503Z,44.40
2017-08-24T20:08:40.340Z,46.00
2017-08-24T20:11:06.646Z,45.87
2017-08-24T20:13:32.951Z,45.57
2017-08-24T20:15:59.134Z,46.37
2017-08-24T20:18:25.411Z,45.30
2017-08-24T20:20:51.682Z,46.87
2017-08-24T20:23:18.027Z,53.37
2017-08-24T20:25:44.307Z,53.67
2017-08-24T20:28:10.486Z,53.60
2017-08-24T20:30:36.866Z,53.67
2017-08-24T20:33:03.037Z,49.50
2017-08-24T20:35:29.286Z,53.00
2017-08-24T20:37:56.444Z,53.00
2017-08-24T20:40:22.652Z,52.67
2017-08-24T20:42:48.917Z,50.20
2017-08-24T20:45:15.166Z,50.57
2017-08-24T20:47:41.662Z,53.00
2017-08-24T20:50:07.892Z,56.63
2017-08-24T20:52:34.222Z,50.80
2017-08-24T20:55:00.505Z,52.60
2017-08-24T20:57:26.753Z,50.87
2017-08-24T20:59:53.714Z,52.60
2017-08-24T21:02:20.253Z,50.57
2017-08-24T21:04:46.479Z,53.67
2017-08-24T21:07:12.775Z,50.60
2017-08-24T21:09:40.040Z,49.97
2017-08-24T21:12:07.508Z,49.73
2017-08-24T21:14:33.799Z,50.97
2017-08-24T21:17:00.486Z,50.77
2017-08-24T21:19:26.754Z,51.43
2017-08-24T21:21:52.902Z,53.83
2017-08-24T21:24:19.082Z,52.10
2017-08-24T21:26:45.335Z,49.63
2017-08-24T21:29:11.536Z,50.07
2017-08-24T21:31:37.970Z,52.87
2017-08-24T21:34:05.138Z,54.97
2017-08-24T21:36:31.367Z,55.23
2017-08-24T21:38:57.604Z,54.07
2017-08-24T21:41:24.103Z,51.00
2017-08-24T21:43:50.433Z,53.57
2017-08-24T21:46:16.663Z,52.60
2017-08-24T21:48:42.949Z,53.53
2017-08-24T21:51:09.207Z,53.60
2017-08-24T21:53:35.512Z,52.60
2017-08-24T21:56:01.767Z,54.67
2017-08-24T21:58:28.394Z,53.20
2017-08-24T22:00:54.800Z,52.30
2017-08-24T22:03:20.993Z,54.93
2017-08-24T22:05:47.126Z,51.77
2017-08-24T22:08:13.454Z,54.97
2017-08-24T22:10:39.733Z,54.20
2017-08-24T22:13:05.965Z,51.63
2017-08-24T22:15:32.085Z,53.43
2017-08-24T22:17:58.291Z,52.83
2017-08-24T22:20:24.456Z,54.83
2017-08-24T22:22:50.702Z,50.67
2017-08-24T22:25:16.819Z,51.67
2017-08-24T22:27:43.147Z,52.77
2017-08-24T22:30:09.434Z,54.43
2017-08-24T22:32:35.623Z,51.73
2017-08-24T22:35:01.777Z,48.67
2017-08-24T22:37:28.158Z,50.80
2017-08-24T22:39:54.377Z,47.67
2017-08-24T22:42:20.541Z,48.30
2017-08-24T22:44:46.663Z,47.40
2017-08-24T22:47:12.803Z,47.23
2017-08-24T22:49:39.542Z,50.77
2017-08-24T22:52:05.724Z,48.57
2017-08-24T22:57:44.977Z,50.50
2017-08-24T23:00:17.472Z,50.53
2017-08-24T23:02:49.825Z,52.67
2017-08-24T23:05:16.076Z,51.80
2017-08-24T23:07:42.275Z,52.00
2017-08-24T23:10:08.380Z,50.17
2017-08-24T23:12:34.622Z,53.40
2017-08-24T23:15:00.970Z,53.00
2017-08-24T23:17:27.242Z,54.10
2017-08-24T23:19:53.652Z,51.17
2017-08-24T23:22:19.835Z,52.30
2017-08-24T23:24:46.263Z,55.93
2017-08-24T23:27:12.510Z,51.67
2017-08-24T23:29:38.727Z,53.57
2017-08-24T23:32:05.017Z,52.60
2017-08-24T23:34:31.233Z,51.90
2017-08-24T23:36:57.446Z,52.50
2017-08-24T23:39:23.647Z,53.60
2017-08-24T23:41:49.847Z,53.50
2017-08-24T23:44:17.004Z,49.40
2017-08-24T23:46:43.566Z,51.47
2017-08-24T23:49:09.886Z,51.70
2017-08-24T23:51:36.083Z,51.47
2017-08-24T23:54:04.129Z,51.27
2017-08-24T23:56:30.571Z,52.27
2017-08-24T23:58:57.377Z,51.40
